sensor_id;sensor_type;location;lat;lon;timestamp;P1;durP1;ratioP1;P2;durP2;ratioP2
6973;SDS011;3527;52.376;8.990;2023-11-19T00:00:12;1.80;;;1.53;;
6973;SDS011;3527;52.376;8.990;2023-11-19T00:02:41;1.63;;;1.50;;
6973;SDS011;3527;52.376;8.990;2023-11-19T00:05:09;2.00;;;1.60;;
6973;SDS011;3527;52.376;8.990;2023-11-19T00:07:39;3.00;;;1.70;;
6973;SDS011;3527;52.376;8.990;2023-11-19T00:10:10;2.47;;;1.87;;
6973;SDS011;3527;52.376;8.990;2023-11-19T00:12:41;2.50;;;2.00;;
6973;SDS011;3527;52.376;8.990;2023-11-19T00:15:10;2.97;;;1.97;;
6973;SDS011;3527;52.376;8.990;2023-11-19T00:17:41;1.80;;;1.40;;
6973;SDS011;3527;52.376;8.990;2023-11-19T00:20:12;2.87;;;1.60;;
6973;SDS011;3527;52.376;8.990;2023-11-19T00:22:40;2.23;;;1.90;;
6973;SDS011;3527;52.376;8.990;2023-11-19T00:25:12;2.10;;;1.53;;
6973;SDS011;3527;52.376;8.990;2023-11-19T00:27:39;4.23;;;1.90;;
6973;SDS011;3527;52.376;8.990;2023-11-19T00:30:06;2.13;;;1.70;;
6973;SDS011;3527;52.376;8.990;2023-11-19T00:32:34;2.23;;;1.73;;
6973;SDS011;3527;52.376;8.990;2023-11-19T00:35:02;2.87;;;2.10;;
6973;SDS011;3527;52.376;8.990;2023-11-19T00:37:32;3.37;;;1.80;;
6973;SDS011;3527;52.376;8.990;2023-11-19T00:40:00;2.63;;;2.10;;
6973;SDS011;3527;52.376;8.990;2023-11-19T00:42:26;2.30;;;2.00;;
6973;SDS011;3527;52.376;8.990;2023-11-19T00:44:53;3.67;;;2.20;;
6973;SDS011;3527;52.376;8.990;2023-11-19T00:47:23;2.70;;;1.87;;
6973;SDS011;3527;52.376;8.990;2023-11-19T00:49:52;2.90;;;2.47;;
6973;SDS011;3527;52.376;8.990;2023-11-19T00:52:18;2.93;;;2.30;;
6973;SDS011;3527;52.376;8.990;2023-11-19T00:54:45;2.80;;;2.53;;
6973;SDS011;3527;52.376;8.990;2023-11-19T00:57:13;5.50;;;2.90;;
6973;SDS011;3527;52.376;8.990;2023-11-19T00:59:43;3.27;;;2.70;;
6973;SDS011;3527;52.376;8.990;2023-11-19T01:02:10;3.43;;;2.63;;
6973;SDS011;3527;52.376;8.990;2023-11-19T01:04:37;4.10;;;2.83;;
6973;SDS011;3527;52.376;8.990;2023-11-19T01:07:04;5.33;;;2.50;;
6973;SDS011;3527;52.376;8.990;2023-11-19T01:09:41;2.93;;;2.20;;
6973;SDS011;3527;52.376;8.990;2023-11-19T01:12:08;3.00;;;2.53;;
6973;SDS011;3527;52.376;8.990;2023-11-19T01:14:38;3.20;;;2.30;;
6973;SDS011;3527;52.376;8.990;2023-11-19T01:17:05;4.57;;;2.40;;
6973;SDS011;3527;52.376;8.990;2023-11-19T01:19:32;3.43;;;2.57;;
6973;SDS011;3527;52.376;8.990;2023-11-19T01:21:59;3.33;;;2.40;;
6973;SDS011;3527;52.376;8.990;2023-11-19T01:24:27;2.50;;;2.00;;
6973;SDS011;3527;52.376;8.990;2023-11-19T01:26:55;2.40;;;1.97;;
6973;SDS011;3527;52.376;8.990;2023-11-19T01:29:24;2.80;;;1.60;;
6973;SDS011;3527;52.376;8.990;2023-11-19T01:31:50;2.10;;;1.80;;
6973;SDS011;3527;52.376;8.990;2023-11-19T01:34:17;2.30;;;1.50;;
6973;SDS011;3527;52.376;8.990;2023-11-19T01:36:46;2.13;;;1.73;;
6973;SDS011;3527;52.376;8.990;2023-11-19T01:39:13;3.37;;;1.93;;
6973;SDS011;3527;52.376;8.990;2023-11-19T01:41:42;3.33;;;2.10;;
6973;SDS011;3527;52.376;8.990;2023-11-19T01:44:09;2.60;;;1.90;;
6973;SDS011;3527;52.376;8.990;2023-11-19T01:46:39;2.37;;;1.90;;
6973;SDS011;3527;52.376;8.990;2023-11-19T01:49:08;4.07;;;2.20;;
6973;SDS011;3527;52.376;8.990;2023-11-19T01:51:35;2.80;;;1.90;;
6973;SDS011;3527;52.376;8.990;2023-11-19T01:54:02;3.60;;;2.20;;
6973;SDS011;3527;52.376;8.990;2023-11-19T01:56:29;2.30;;;1.83;;
6973;SDS011;3527;52.376;8.990;2023-11-19T01:58:58;2.30;;;1.90;;
6973;SDS011;3527;52.376;8.990;2023-11-19T02:01:25;2.23;;;1.80;;
6973;SDS011;3527;52.376;8.990;2023-11-19T02:03:52;2.50;;;1.90;;
6973;SDS011;3527;52.376;8.990;2023-11-19T02:06:19;2.07;;;1.87;;
6973;SDS011;3527;52.376;8.990;2023-11-19T02:08:46;3.33;;;2.07;;
6973;SDS011;3527;52.376;8.990;2023-11-19T02:11:13;2.70;;;2.03;;
6973;SDS011;3527;52.376;8.990;2023-11-19T02:13:40;2.80;;;2.27;;
6973;SDS011;3527;52.376;8.990;2023-11-19T02:16:09;4.10;;;2.57;;
6973;SDS011;3527;52.376;8.990;2023-11-19T02:18:38;5.13;;;2.73;;
6973;SDS011;3527;52.376;8.990;2023-11-19T02:21:04;3.10;;;2.80;;
6973;SDS011;3527;52.376;8.990;2023-11-19T02:23:31;3.80;;;2.70;;
6973;SDS011;3527;52.376;8.990;2023-11-19T02:28:44;4.17;;;3.70;;
6973;SDS011;3527;52.376;8.990;2023-11-19T02:31:12;5.60;;;3.90;;
6973;SDS011;3527;52.376;8.990;2023-11-19T02:33:39;7.00;;;4.50;;
6973;SDS011;3527;52.376;8.990;2023-11-19T02:36:07;5.77;;;4.53;;
6973;SDS011;3527;52.376;8.990;2023-11-19T02:38:35;6.00;;;4.90;;
6973;SDS011;3527;52.376;8.990;2023-11-19T02:41:03;6.50;;;5.37;;
6973;SDS011;3527;52.376;8.990;2023-11-19T02:43:34;7.60;;;5.80;;
6973;SDS011;3527;52.376;8.990;2023-11-19T02:46:04;8.63;;;5.63;;
6973;SDS011;3527;52.376;8.990;2023-11-19T02:48:37;8.33;;;6.37;;
6973;SDS011;3527;52.376;8.990;2023-11-19T02:51:04;8.27;;;6.97;;
6973;SDS011;3527;52.376;8.990;2023-11-19T02:53:33;9.47;;;7.23;;
6973;SDS011;3527;52.376;8.990;2023-11-19T02:55:59;10.33;;;7.70;;
6973;SDS011;3527;52.376;8.990;2023-11-19T02:58:37;9.03;;;7.03;;
6973;SDS011;3527;52.376;8.990;2023-11-19T03:01:05;9.47;;;7.37;;
6973;SDS011;3527;52.376;8.990;2023-11-19T03:03:50;9.80;;;7.60;;
6973;SDS011;3527;52.376;8.990;2023-11-19T03:06:28;13.03;;;8.00;;
6973;SDS011;3527;52.376;8.990;2023-11-19T03:08:55;10.63;;;7.67;;
6973;SDS011;3527;52.376;8.990;2023-11-19T03:11:22;10.47;;;7.70;;
6973;SDS011;3527;52.376;8.990;2023-11-19T03:13:49;10.77;;;7.83;;
6973;SDS011;3527;52.376;8.990;2023-11-19T03:16:16;11.13;;;8.20;;
6973;SDS011;3527;52.376;8.990;2023-11-19T03:18:43;11.03;;;8.27;;
6973;SDS011;3527;52.376;8.990;2023-11-19T03:21:12;12.17;;;8.70;;
6973;SDS011;3527;52.376;8.990;2023-11-19T03:23:39;9.83;;;7.43;;
6973;SDS011;3527;52.376;8.990;2023-11-19T03:26:06;10.37;;;8.60;;
6973;SDS011;3527;52.376;8.990;2023-11-19T03:28:34;12.70;;;8.70;;
6973;SDS011;3527;52.376;8.990;2023-11-19T03:31:01;12.57;;;10.60;;
6973;SDS011;3527;52.376;8.990;2023-11-19T03:33:31;14.87;;;10.23;;
6973;SDS011;3527;52.376;8.990;2023-11-19T03:35:59;15.53;;;9.63;;
6973;SDS011;3527;52.376;8.990;2023-11-19T03:38:26;15.63;;;10.50;;
6973;SDS011;3527;52.376;8.990;2023-11-19T03:40:52;15.17;;;11.07;;
6973;SDS011;3527;52.376;8.990;2023-11-19T03:43:21;18.67;;;11.03;;
6973;SDS011;3527;52.376;8.990;2023-11-19T03:45:48;17.10;;;11.87;;
6973;SDS011;3527;52.376;8.990;2023-11-19T03:48:15;17.37;;;11.93;;
6973;SDS011;3527;52.376;8.990;2023-11-19T03:50:45;19.00;;;12.73;;
6973;SDS011;3527;52.376;8.990;2023-11-19T03:53:14;21.23;;;14.50;;
6973;SDS011;3527;52.376;8.990;2023-11-19T03:55:41;20.57;;;14.73;;
6973;SDS011;3527;52.376;8.990;2023-11-19T03:58:07;19.97;;;13.43;;
6973;SDS011;3527;52.376;8.990;2023-11-19T04:00:36;22.27;;;15.07;;
6973;SDS011;3527;52.376;8.990;2023-11-19T04:03:04;21.83;;;15.63;;
6973;SDS011;3527;52.376;8.990;2023-11-19T04:05:31;26.23;;;16.10;;
6973;SDS011;3527;52.376;8.990;2023-11-19T04:07:58;20.73;;;15.97;;
6973;SDS011;3527;52.376;8.990;2023-11-19T04:10:25;23.07;;;16.70;;
6973;SDS011;3527;52.376;8.990;2023-11-19T04:13:03;24.60;;;16.67;;
6973;SDS011;3527;52.376;8.990;2023-11-19T04:15:30;28.63;;;18.73;;
6973;SDS011;3527;52.376;8.990;2023-11-19T04:17:57;29.93;;;19.13;;
6973;SDS011;3527;52.376;8.990;2023-11-19T04:20:24;26.87;;;18.87;;
6973;SDS011;3527;52.376;8.990;2023-11-19T04:22:52;30.40;;;18.77;;
6973;SDS011;3527;52.376;8.990;2023-11-19T04:25:20;31.47;;;20.10;;
6973;SDS011;3527;52.376;8.990;2023-11-19T04:27:47;30.73;;;19.27;;
6973;SDS011;3527;52.376;8.990;2023-11-19T04:30:19;31.40;;;20.03;;
6973;SDS011;3527;52.376;8.990;2023-11-19T04:32:46;30.03;;;19.07;;
6973;SDS011;3527;52.376;8.990;2023-11-19T04:35:15;31.70;;;21.03;;
6973;SDS011;3527;52.376;8.990;2023-11-19T04:37:42;29.87;;;19.30;;
6973;SDS011;3527;52.376;8.990;2023-11-19T04:40:09;27.50;;;18.17;;
6973;SDS011;3527;52.376;8.990;2023-11-19T04:42:39;34.23;;;19.43;;
6973;SDS011;3527;52.376;8.990;2023-11-19T04:45:10;30.17;;;19.27;;
6973;SDS011;3527;52.376;8.990;2023-11-19T04:47:37;28.17;;;20.37;;
6973;SDS011;3527;52.376;8.990;2023-11-19T04:50:03;33.60;;;19.23;;
6973;SDS011;3527;52.376;8.990;2023-11-19T04:52:31;32.07;;;19.83;;
6973;SDS011;3527;52.376;8.990;2023-11-19T04:54:59;36.67;;;20.30;;
6973;SDS011;3527;52.376;8.990;2023-11-19T04:57:26;30.63;;;21.30;;
6973;SDS011;3527;52.376;8.990;2023-11-19T04:59:53;37.63;;;20.93;;
6973;SDS011;3527;52.376;8.990;2023-11-19T05:02:20;27.70;;;18.87;;
6973;SDS011;3527;52.376;8.990;2023-11-19T05:04:48;35.47;;;20.03;;
6973;SDS011;3527;52.376;8.990;2023-11-19T05:07:15;34.50;;;20.40;;
6973;SDS011;3527;52.376;8.990;2023-11-19T05:09:42;32.50;;;18.73;;
6973;SDS011;3527;52.376;8.990;2023-11-19T05:12:09;32.23;;;20.80;;
6973;SDS011;3527;52.376;8.990;2023-11-19T05:14:38;33.77;;;20.43;;
6973;SDS011;3527;52.376;8.990;2023-11-19T05:17:05;36.10;;;22.77;;
6973;SDS011;3527;52.376;8.990;2023-11-19T05:19:32;29.47;;;20.00;;
6973;SDS011;3527;52.376;8.990;2023-11-19T05:21:59;35.50;;;20.23;;
6973;SDS011;3527;52.376;8.990;2023-11-19T05:24:28;34.00;;;20.50;;
6973;SDS011;3527;52.376;8.990;2023-11-19T05:26:58;35.23;;;20.00;;
6973;SDS011;3527;52.376;8.990;2023-11-19T05:29:25;37.13;;;19.20;;
6973;SDS011;3527;52.376;8.990;2023-11-19T05:31:52;26.80;;;19.53;;
6973;SDS011;3527;52.376;8.990;2023-11-19T05:34:21;29.00;;;17.83;;
6973;SDS011;3527;52.376;8.990;2023-11-19T05:36:49;29.60;;;17.47;;
6973;SDS011;3527;52.376;8.990;2023-11-19T05:39:16;26.90;;;17.20;;
6973;SDS011;3527;52.376;8.990;2023-11-19T05:41:46;30.00;;;17.33;;
6973;SDS011;3527;52.376;8.990;2023-11-19T05:44:12;29.77;;;16.30;;
6973;SDS011;3527;52.376;8.990;2023-11-19T05:46:40;30.87;;;15.63;;
6973;SDS011;3527;52.376;8.990;2023-11-19T05:49:09;28.53;;;16.70;;
6973;SDS011;3527;52.376;8.990;2023-11-19T05:51:37;30.13;;;16.40;;
6973;SDS011;3527;52.376;8.990;2023-11-19T05:54:08;27.27;;;15.87;;
6973;SDS011;3527;52.376;8.990;2023-11-19T05:56:36;32.77;;;15.30;;
6973;SDS011;3527;52.376;8.990;2023-11-19T05:59:03;24.90;;;14.23;;
6973;SDS011;3527;52.376;8.990;2023-11-19T06:01:35;33.20;;;14.10;;
6973;SDS011;3527;52.376;8.990;2023-11-19T06:04:15;25.47;;;12.40;;
6973;SDS011;3527;52.376;8.990;2023-11-19T06:06:44;28.63;;;12.37;;
6973;SDS011;3527;52.376;8.990;2023-11-19T06:09:11;32.83;;;12.57;;
6973;SDS011;3527;52.376;8.990;2023-11-19T06:11:40;24.97;;;11.77;;
6973;SDS011;3527;52.376;8.990;2023-11-19T06:14:19;25.93;;;11.63;;
6973;SDS011;3527;52.376;8.990;2023-11-19T06:16:46;24.63;;;11.07;;
6973;SDS011;3527;52.376;8.990;2023-11-19T06:19:14;27.10;;;10.67;;
6973;SDS011;3527;52.376;8.990;2023-11-19T06:21:42;22.77;;;9.70;;
6973;SDS011;3527;52.376;8.990;2023-11-19T06:24:09;28.23;;;9.53;;
6973;SDS011;3527;52.376;8.990;2023-11-19T06:26:36;22.13;;;8.50;;
6973;SDS011;3527;52.376;8.990;2023-11-19T06:29:03;24.17;;;9.13;;
6973;SDS011;3527;52.376;8.990;2023-11-19T06:31:29;24.53;;;8.53;;
6973;SDS011;3527;52.376;8.990;2023-11-19T06:33:56;20.23;;;7.77;;
6973;SDS011;3527;52.376;8.990;2023-11-19T06:36:23;24.23;;;8.50;;
6973;SDS011;3527;52.376;8.990;2023-11-19T06:39:00;27.20;;;9.57;;
6973;SDS011;3527;52.376;8.990;2023-11-19T06:41:27;24.97;;;8.30;;
6973;SDS011;3527;52.376;8.990;2023-11-19T06:43:57;15.93;;;7.97;;
6973;SDS011;3527;52.376;8.990;2023-11-19T06:46:37;26.60;;;8.57;;
6973;SDS011;3527;52.376;8.990;2023-11-19T06:49:05;24.93;;;8.97;;
6973;SDS011;3527;52.376;8.990;2023-11-19T06:51:34;25.93;;;8.37;;
6973;SDS011;3527;52.376;8.990;2023-11-19T06:54:02;25.37;;;8.00;;
6973;SDS011;3527;52.376;8.990;2023-11-19T06:56:40;23.80;;;7.57;;
6973;SDS011;3527;52.376;8.990;2023-11-19T06:59:08;24.77;;;6.87;;
6973;SDS011;3527;52.376;8.990;2023-11-19T07:01:36;27.30;;;7.57;;
6973;SDS011;3527;52.376;8.990;2023-11-19T07:04:05;22.67;;;6.83;;
6973;SDS011;3527;52.376;8.990;2023-11-19T07:06:38;26.07;;;5.90;;
6973;SDS011;3527;52.376;8.990;2023-11-19T07:09:10;18.83;;;5.73;;
6973;SDS011;3527;52.376;8.990;2023-11-19T07:11:42;26.40;;;6.73;;
6973;SDS011;3527;52.376;8.990;2023-11-19T07:14:10;18.03;;;5.97;;
6973;SDS011;3527;52.376;8.990;2023-11-19T07:16:37;24.23;;;6.40;;
6973;SDS011;3527;52.376;8.990;2023-11-19T07:19:06;22.13;;;6.07;;
6973;SDS011;3527;52.376;8.990;2023-11-19T07:21:33;20.83;;;6.10;;
6973;SDS011;3527;52.376;8.990;2023-11-19T07:24:04;23.47;;;5.93;;
6973;SDS011;3527;52.376;8.990;2023-11-19T07:26:32;24.90;;;6.20;;
6973;SDS011;3527;52.376;8.990;2023-11-19T07:28:58;24.57;;;5.50;;
6973;SDS011;3527;52.376;8.990;2023-11-19T07:31:27;22.07;;;5.77;;
6973;SDS011;3527;52.376;8.990;2023-11-19T07:33:54;27.30;;;6.37;;
6973;SDS011;3527;52.376;8.990;2023-11-19T07:36:21;24.57;;;6.10;;
6973;SDS011;3527;52.376;8.990;2023-11-19T07:38:47;22.97;;;5.90;;
6973;SDS011;3527;52.376;8.990;2023-11-19T07:41:14;20.83;;;6.00;;
6973;SDS011;3527;52.376;8.990;2023-11-19T07:43:43;27.63;;;6.33;;
6973;SDS011;3527;52.376;8.990;2023-11-19T07:46:13;27.40;;;5.27;;
6973;SDS011;3527;52.376;8.990;2023-11-19T07:48:40;25.43;;;5.97;;
6973;SDS011;3527;52.376;8.990;2023-11-19T07:51:10;22.80;;;5.93;;
6973;SDS011;3527;52.376;8.990;2023-11-19T07:53:37;27.30;;;6.47;;
6973;SDS011;3527;52.376;8.990;2023-11-19T07:56:05;24.43;;;6.00;;
6973;SDS011;3527;52.376;8.990;2023-11-19T07:58:33;29.00;;;6.03;;
6973;SDS011;3527;52.376;8.990;2023-11-19T08:01:00;20.30;;;5.17;;
6973;SDS011;3527;52.376;8.990;2023-11-19T08:03:28;21.67;;;5.77;;
6973;SDS011;3527;52.376;8.990;2023-11-19T08:05:56;24.27;;;5.87;;
6973;SDS011;3527;52.376;8.990;2023-11-19T08:08:25;34.87;;;7.30;;
6973;SDS011;3527;52.376;8.990;2023-11-19T08:10:55;23.63;;;5.53;;
6973;SDS011;3527;52.376;8.990;2023-11-19T08:13:26;29.40;;;6.03;;
6973;SDS011;3527;52.376;8.990;2023-11-19T08:15:53;23.50;;;5.33;;
6973;SDS011;3527;52.376;8.990;2023-11-19T08:18:20;25.43;;;5.70;;
6973;SDS011;3527;52.376;8.990;2023-11-19T08:20:47;21.30;;;6.03;;
6973;SDS011;3527;52.376;8.990;2023-11-19T08:23:19;20.87;;;6.17;;
6973;SDS011;3527;52.376;8.990;2023-11-19T08:25:55;26.27;;;6.07;;
6973;SDS011;3527;52.376;8.990;2023-11-19T08:28:22;25.63;;;5.87;;
6973;SDS011;3527;52.376;8.990;2023-11-19T08:30:52;15.97;;;4.90;;
6973;SDS011;3527;52.376;8.990;2023-11-19T08:33:31;26.07;;;6.10;;
6973;SDS011;3527;52.376;8.990;2023-11-19T08:35:58;26.20;;;5.70;;
6973;SDS011;3527;52.376;8.990;2023-11-19T08:38:27;22.20;;;5.83;;
6973;SDS011;3527;52.376;8.990;2023-11-19T08:40:57;28.57;;;7.03;;
6973;SDS011;3527;52.376;8.990;2023-11-19T08:43:30;23.20;;;5.03;;
6973;SDS011;3527;52.376;8.990;2023-11-19T08:46:00;26.37;;;6.47;;
6973;SDS011;3527;52.376;8.990;2023-11-19T08:48:28;27.87;;;6.60;;
6973;SDS011;3527;52.376;8.990;2023-11-19T08:50:55;26.57;;;5.90;;
6973;SDS011;3527;52.376;8.990;2023-11-19T08:53:22;20.03;;;5.67;;
6973;SDS011;3527;52.376;8.990;2023-11-19T08:55:49;26.07;;;6.50;;
6973;SDS011;3527;52.376;8.990;2023-11-19T08:58:16;19.97;;;6.10;;
6973;SDS011;3527;52.376;8.990;2023-11-19T09:00:44;29.90;;;6.43;;
6973;SDS011;3527;52.376;8.990;2023-11-19T09:03:11;23.80;;;6.10;;
6973;SDS011;3527;52.376;8.990;2023-11-19T09:05:40;24.23;;;6.37;;
6973;SDS011;3527;52.376;8.990;2023-11-19T09:08:11;25.03;;;7.13;;
6973;SDS011;3527;52.376;8.990;2023-11-19T09:10:39;29.17;;;6.97;;
6973;SDS011;3527;52.376;8.990;2023-11-19T09:13:05;28.30;;;7.30;;
6973;SDS011;3527;52.376;8.990;2023-11-19T09:15:32;25.93;;;6.17;;
6973;SDS011;3527;52.376;8.990;2023-11-19T09:18:01;28.23;;;6.43;;
6973;SDS011;3527;52.376;8.990;2023-11-19T09:20:41;30.23;;;6.33;;
6973;SDS011;3527;52.376;8.990;2023-11-19T09:23:07;24.17;;;5.47;;
6973;SDS011;3527;52.376;8.990;2023-11-19T09:25:36;32.50;;;7.10;;
6973;SDS011;3527;52.376;8.990;2023-11-19T09:28:10;26.77;;;6.77;;
6973;SDS011;3527;52.376;8.990;2023-11-19T09:30:37;26.20;;;5.67;;
6973;SDS011;3527;52.376;8.990;2023-11-19T09:33:04;27.90;;;6.07;;
6973;SDS011;3527;52.376;8.990;2023-11-19T09:35:32;27.90;;;6.30;;
6973;SDS011;3527;52.376;8.990;2023-11-19T09:37:59;28.83;;;6.47;;
6973;SDS011;3527;52.376;8.990;2023-11-19T09:40:30;24.53;;;5.30;;
6973;SDS011;3527;52.376;8.990;2023-11-19T09:42:58;27.47;;;6.50;;
6973;SDS011;3527;52.376;8.990;2023-11-19T09:45:25;23.87;;;5.87;;
6973;SDS011;3527;52.376;8.990;2023-11-19T09:47:54;22.03;;;5.83;;
6973;SDS011;3527;52.376;8.990;2023-11-19T09:50:24;24.67;;;5.57;;
6973;SDS011;3527;52.376;8.990;2023-11-19T09:52:51;26.63;;;5.67;;
6973;SDS011;3527;52.376;8.990;2023-11-19T09:55:21;25.53;;;6.20;;
6973;SDS011;3527;52.376;8.990;2023-11-19T09:57:48;26.50;;;5.57;;
6973;SDS011;3527;52.376;8.990;2023-11-19T10:00:19;26.77;;;5.40;;
6973;SDS011;3527;52.376;8.990;2023-11-19T10:02:47;29.23;;;6.47;;
6973;SDS011;3527;52.376;8.990;2023-11-19T10:05:16;28.97;;;6.80;;
6973;SDS011;3527;52.376;8.990;2023-11-19T10:07:44;25.60;;;6.10;;
6973;SDS011;3527;52.376;8.990;2023-11-19T10:10:22;26.33;;;6.17;;
6973;SDS011;3527;52.376;8.990;2023-11-19T10:12:50;24.30;;;6.40;;
6973;SDS011;3527;52.376;8.990;2023-11-19T10:15:21;25.77;;;6.00;;
6973;SDS011;3527;52.376;8.990;2023-11-19T10:17:50;22.60;;;6.43;;
6973;SDS011;3527;52.376;8.990;2023-11-19T10:20:19;24.23;;;5.70;;
6973;SDS011;3527;52.376;8.990;2023-11-19T10:22:59;22.97;;;6.17;;
6973;SDS011;3527;52.376;8.990;2023-11-19T10:25:27;20.60;;;5.43;;
6973;SDS011;3527;52.376;8.990;2023-11-19T10:27:55;26.60;;;7.23;;
6973;SDS011;3527;52.376;8.990;2023-11-19T10:30:26;28.30;;;6.40;;
6973;SDS011;3527;52.376;8.990;2023-11-19T10:35:35;21.00;;;5.70;;
6973;SDS011;3527;52.376;8.990;2023-11-19T10:38:15;24.37;;;6.07;;
6973;SDS011;3527;52.376;8.990;2023-11-19T10:40:56;28.30;;;6.37;;
6973;SDS011;3527;52.376;8.990;2023-11-19T10:43:25;29.63;;;6.87;;
6973;SDS011;3527;52.376;8.990;2023-11-19T10:45:52;29.80;;;6.23;;
6973;SDS011;3527;52.376;8.990;2023-11-19T10:48:19;25.10;;;6.23;;
6973;SDS011;3527;52.376;8.990;2023-11-19T10:50:50;26.27;;;6.47;;
6973;SDS011;3527;52.376;8.990;2023-11-19T10:53:21;22.17;;;5.50;;
6973;SDS011;3527;52.376;8.990;2023-11-19T10:55:52;22.37;;;5.83;;
6973;SDS011;3527;52.376;8.990;2023-11-19T10:58:24;32.10;;;6.30;;
6973;SDS011;3527;52.376;8.990;2023-11-19T11:00:55;26.93;;;5.53;;
6973;SDS011;3527;52.376;8.990;2023-11-19T11:03:28;23.70;;;5.50;;
6973;SDS011;3527;52.376;8.990;2023-11-19T11:05:58;28.90;;;6.20;;
6973;SDS011;3527;52.376;8.990;2023-11-19T11:08:29;22.17;;;6.17;;
6973;SDS011;3527;52.376;8.990;2023-11-19T11:11:09;27.87;;;5.50;;
6973;SDS011;3527;52.376;8.990;2023-11-19T11:13:40;26.17;;;5.60;;
6973;SDS011;3527;52.376;8.990;2023-11-19T11:16:08;24.53;;;6.33;;
6973;SDS011;3527;52.376;8.990;2023-11-19T11:18:35;21.77;;;6.03;;
6973;SDS011;3527;52.376;8.990;2023-11-19T11:28:59;26.53;;;6.33;;
6973;SDS011;3527;52.376;8.990;2023-11-19T11:34:26;23.10;;;6.50;;
6973;SDS011;3527;52.376;8.990;2023-11-19T11:40:06;34.00;;;7.23;;
6973;SDS011;3527;52.376;8.990;2023-11-19T11:42:37;20.37;;;6.23;;
6973;SDS011;3527;52.376;8.990;2023-11-19T11:50:11;32.07;;;7.03;;
6973;SDS011;3527;52.376;8.990;2023-11-19T11:55:28;25.87;;;6.23;;
6973;SDS011;3527;52.376;8.990;2023-11-19T11:58:05;21.33;;;6.67;;
6973;SDS011;3527;52.376;8.990;2023-11-19T12:00:32;25.33;;;6.80;;
6973;SDS011;3527;52.376;8.990;2023-11-19T12:03:06;30.23;;;7.00;;
6973;SDS011;3527;52.376;8.990;2023-11-19T12:05:40;21.33;;;6.17;;
6973;SDS011;3527;52.376;8.990;2023-11-19T12:08:13;24.13;;;5.70;;
6973;SDS011;3527;52.376;8.990;2023-11-19T12:10:51;26.07;;;6.30;;
6973;SDS011;3527;52.376;8.990;2023-11-19T12:13:20;21.77;;;6.10;;
6973;SDS011;3527;52.376;8.990;2023-11-19T12:20:50;22.80;;;5.47;;
6973;SDS011;3527;52.376;8.990;2023-11-19T12:23:17;21.53;;;6.23;;
6973;SDS011;3527;52.376;8.990;2023-11-19T12:25:44;23.17;;;6.07;;
6973;SDS011;3527;52.376;8.990;2023-11-19T12:28:14;27.43;;;6.40;;
6973;SDS011;3527;52.376;8.990;2023-11-19T12:30:44;19.73;;;5.97;;
6973;SDS011;3527;52.376;8.990;2023-11-19T12:33:12;20.70;;;6.30;;
6973;SDS011;3527;52.376;8.990;2023-11-19T12:35:40;25.57;;;6.80;;
6973;SDS011;3527;52.376;8.990;2023-11-19T12:38:08;23.57;;;5.53;;
6973;SDS011;3527;52.376;8.990;2023-11-19T12:40:47;28.00;;;5.57;;
6973;SDS011;3527;52.376;8.990;2023-11-19T12:43:28;18.23;;;5.13;;
6973;SDS011;3527;52.376;8.990;2023-11-19T12:45:55;23.73;;;6.03;;
6973;SDS011;3527;52.376;8.990;2023-11-19T12:48:21;27.80;;;6.23;;
6973;SDS011;3527;52.376;8.990;2023-11-19T12:50:55;20.77;;;5.77;;
6973;SDS011;3527;52.376;8.990;2023-11-19T12:53:28;15.07;;;5.30;;
6973;SDS011;3527;52.376;8.990;2023-11-19T12:55:55;27.33;;;6.10;;
6973;SDS011;3527;52.376;8.990;2023-11-19T12:58:33;23.03;;;5.27;;
6973;SDS011;3527;52.376;8.990;2023-11-19T13:01:07;18.37;;;5.60;;
6973;SDS011;3527;52.376;8.990;2023-11-19T13:03:36;25.77;;;6.83;;
6973;SDS011;3527;52.376;8.990;2023-11-19T13:06:06;21.73;;;5.67;;
6973;SDS011;3527;52.376;8.990;2023-11-19T13:11:15;26.90;;;6.53;;
6973;SDS011;3527;52.376;8.990;2023-11-19T13:13:57;26.23;;;6.43;;
6973;SDS011;3527;52.376;8.990;2023-11-19T13:16:26;27.43;;;6.47;;
6973;SDS011;3527;52.376;8.990;2023-11-19T13:18:55;25.90;;;6.50;;
6973;SDS011;3527;52.376;8.990;2023-11-19T13:21:22;21.63;;;5.43;;
6973;SDS011;3527;52.376;8.990;2023-11-19T13:23:49;23.07;;;5.97;;
6973;SDS011;3527;52.376;8.990;2023-11-19T13:26:16;24.93;;;6.30;;
6973;SDS011;3527;52.376;8.990;2023-11-19T13:28:43;22.10;;;5.23;;
6973;SDS011;3527;52.376;8.990;2023-11-19T13:31:09;21.33;;;5.60;;
6973;SDS011;3527;52.376;8.990;2023-11-19T13:33:37;26.90;;;6.63;;
6973;SDS011;3527;52.376;8.990;2023-11-19T13:36:04;20.87;;;6.00;;
6973;SDS011;3527;52.376;8.990;2023-11-19T13:38:34;24.73;;;6.87;;
6973;SDS011;3527;52.376;8.990;2023-11-19T13:41:03;22.53;;;5.97;;
6973;SDS011;3527;52.376;8.990;2023-11-19T13:43:35;20.30;;;4.93;;
6973;SDS011;3527;52.376;8.990;2023-11-19T13:46:02;28.23;;;6.43;;
6973;SDS011;3527;52.376;8.990;2023-11-19T13:48:30;26.73;;;6.43;;
6973;SDS011;3527;52.376;8.990;2023-11-19T13:50:57;22.43;;;6.10;;
6973;SDS011;3527;52.376;8.990;2023-11-19T13:53:25;22.00;;;5.10;;
6973;SDS011;3527;52.376;8.990;2023-11-19T13:55:51;23.43;;;6.03;;
6973;SDS011;3527;52.376;8.990;2023-11-19T13:58:19;28.90;;;5.93;;
6973;SDS011;3527;52.376;8.990;2023-11-19T14:00:46;26.23;;;5.97;;
6973;SDS011;3527;52.376;8.990;2023-11-19T14:03:12;25.57;;;5.97;;
6973;SDS011;3527;52.376;8.990;2023-11-19T14:05:39;27.37;;;6.23;;
6973;SDS011;3527;52.376;8.990;2023-11-19T14:08:07;25.73;;;6.57;;
6973;SDS011;3527;52.376;8.990;2023-11-19T14:10:50;26.50;;;7.10;;
6973;SDS011;3527;52.376;8.990;2023-11-19T14:13:19;28.03;;;6.73;;
6973;SDS011;3527;52.376;8.990;2023-11-19T14:15:46;24.90;;;6.67;;
6973;SDS011;3527;52.376;8.990;2023-11-19T14:18:15;30.17;;;6.73;;
6973;SDS011;3527;52.376;8.990;2023-11-19T14:20:42;34.80;;;6.57;;
6973;SDS011;3527;52.376;8.990;2023-11-19T14:23:10;21.77;;;6.07;;
6973;SDS011;3527;52.376;8.990;2023-11-19T14:25:37;28.03;;;6.87;;
6973;SDS011;3527;52.376;8.990;2023-11-19T14:28:04;28.63;;;6.83;;
6973;SDS011;3527;52.376;8.990;2023-11-19T14:30:32;32.13;;;6.83;;
6973;SDS011;3527;52.376;8.990;2023-11-19T14:33:01;25.90;;;7.63;;
6973;SDS011;3527;52.376;8.990;2023-11-19T14:35:30;26.60;;;7.00;;
6973;SDS011;3527;52.376;8.990;2023-11-19T14:37:59;30.03;;;7.53;;
6973;SDS011;3527;52.376;8.990;2023-11-19T14:40:26;30.47;;;6.83;;
6973;SDS011;3527;52.376;8.990;2023-11-19T14:42:56;25.30;;;7.17;;
6973;SDS011;3527;52.376;8.990;2023-11-19T14:45:22;26.83;;;6.50;;
6973;SDS011;3527;52.376;8.990;2023-11-19T14:47:50;25.93;;;7.33;;
6973;SDS011;3527;52.376;8.990;2023-11-19T14:50:17;31.53;;;8.07;;
6973;SDS011;3527;52.376;8.990;2023-11-19T14:52:43;22.17;;;6.27;;
6973;SDS011;3527;52.376;8.990;2023-11-19T14:55:10;32.23;;;7.50;;
6973;SDS011;3527;52.376;8.990;2023-11-19T14:57:50;33.33;;;8.10;;
6973;SDS011;3527;52.376;8.990;2023-11-19T15:00:31;21.60;;;5.90;;
6973;SDS011;3527;52.376;8.990;2023-11-19T15:03:00;28.33;;;7.23;;
6973;SDS011;3527;52.376;8.990;2023-11-19T15:05:26;27.97;;;6.90;;
6973;SDS011;3527;52.376;8.990;2023-11-19T15:07:55;27.07;;;6.50;;
6973;SDS011;3527;52.376;8.990;2023-11-19T15:10:22;29.57;;;7.33;;
6973;SDS011;3527;52.376;8.990;2023-11-19T15:12:51;26.47;;;6.53;;
6973;SDS011;3527;52.376;8.990;2023-11-19T15:15:21;31.73;;;8.17;;
6973;SDS011;3527;52.376;8.990;2023-11-19T15:17:51;28.73;;;6.70;;
6973;SDS011;3527;52.376;8.990;2023-11-19T15:20:18;28.17;;;7.57;;
6973;SDS011;3527;52.376;8.990;2023-11-19T15:22:45;29.93;;;7.27;;
6973;SDS011;3527;52.376;8.990;2023-11-19T15:25:12;27.53;;;7.27;;
6973;SDS011;3527;52.376;8.990;2023-11-19T15:27:39;27.53;;;6.13;;
6973;SDS011;3527;52.376;8.990;2023-11-19T15:30:06;30.60;;;7.80;;
6973;SDS011;3527;52.376;8.990;2023-11-19T15:32:36;27.40;;;7.13;;
6973;SDS011;3527;52.376;8.990;2023-11-19T15:35:04;27.73;;;6.80;;
6973;SDS011;3527;52.376;8.990;2023-11-19T15:37:34;26.67;;;6.70;;
6973;SDS011;3527;52.376;8.990;2023-11-19T15:40:01;26.40;;;7.63;;
6973;SDS011;3527;52.376;8.990;2023-11-19T15:42:31;22.37;;;7.07;;
6973;SDS011;3527;52.376;8.990;2023-11-19T15:44:57;28.20;;;6.43;;
6973;SDS011;3527;52.376;8.990;2023-11-19T15:47:25;28.20;;;6.13;;